UAL416 KRDU-KLGA
Flight info
| Callsign | UAL416 |
|---|---|
| Flight time | N/A |
| Altitude | 37000 |
| Route | BEXGO5 BOUSY GEARS Q87 HURTS PROUD2 |
| Aircraft | B738/M-SDE2E3FGHIRWXY/LB1 |
Departure
| Time | 2026-05-06 03:02 |
|---|---|
| Airport | Raleigh-Durham International Airport (KRDU) |
Arrival
| Time | N/A |
|---|---|
| Airport | LaGuardia Airport (KLGA) |
| Time | Latitude | Longitude | Altitude | Speed | Heading |
|---|---|---|---|---|---|
| 2026-05-06 02:32 | 35.87983 | -78.79095 | 391 ft | 0 kts | 226° |
| 2026-05-06 02:51 | 35.87988 | -78.79088 | 391 ft | 4 kts | 227° |
| 2026-05-06 02:51 | 35.88005 | -78.79062 | 391 ft | 4 kts | 246° |
| 2026-05-06 02:51 | 35.88009 | -78.79033 | 391 ft | 4 kts | 296° |
| 2026-05-06 02:51 | 35.88005 | -78.79024 | 391 ft | 0 kts | 315° |
| 2026-05-06 02:54 | 35.88009 | -78.79030 | 391 ft | 5 kts | 313° |
| 2026-05-06 02:55 | 35.88038 | -78.79070 | 391 ft | 7 kts | 311° |
| 2026-05-06 02:55 | 35.88065 | -78.79118 | 391 ft | 7 kts | 304° |
| 2026-05-06 02:55 | 35.88113 | -78.79158 | 391 ft | 11 kts | 360° |
| 2026-05-06 02:55 | 35.88180 | -78.79102 | 391 ft | 12 kts | 47° |
| 2026-05-06 02:56 | 35.88238 | -78.79030 | 390 ft | 12 kts | 44° |
| 2026-05-06 02:56 | 35.88296 | -78.78960 | 390 ft | 11 kts | 45° |
| 2026-05-06 02:56 | 35.88350 | -78.78891 | 390 ft | 11 kts | 46° |
| 2026-05-06 02:56 | 35.88404 | -78.78825 | 390 ft | 11 kts | 44° |
| 2026-05-06 02:57 | 35.88457 | -78.78761 | 390 ft | 10 kts | 45° |
| 2026-05-06 02:57 | 35.88508 | -78.78698 | 391 ft | 10 kts | 45° |
| 2026-05-06 02:57 | 35.88556 | -78.78637 | 396 ft | 10 kts | 46° |
| 2026-05-06 02:57 | 35.88604 | -78.78577 | 391 ft | 10 kts | 45° |
| 2026-05-06 02:58 | 35.88617 | -78.78560 | 391 ft | 10 kts | 45° |
| 2026-05-06 02:58 | 35.88664 | -78.78503 | 391 ft | 10 kts | 44° |
| 2026-05-06 02:58 | 35.88719 | -78.78437 | 391 ft | 13 kts | 44° |
| 2026-05-06 02:58 | 35.88799 | -78.78339 | 391 ft | 19 kts | 45° |
| 2026-05-06 02:59 | 35.88909 | -78.78202 | 391 ft | 25 kts | 45° |
| 2026-05-06 02:59 | 35.89030 | -78.78051 | 390 ft | 24 kts | 45° |
| 2026-05-06 02:59 | 35.89120 | -78.77940 | 391 ft | 16 kts | 44° |
| 2026-05-06 02:59 | 35.89196 | -78.77845 | 391 ft | 15 kts | 44° |
| 2026-05-06 03:00 | 35.89244 | -78.77789 | 391 ft | 2 kts | 44° |
| 2026-05-06 03:00 | 35.89254 | -78.77776 | 391 ft | 2 kts | 47° |
| 2026-05-06 03:00 | 35.89283 | -78.77745 | 391 ft | 7 kts | 24° |
| 2026-05-06 03:00 | 35.89328 | -78.77762 | 392 ft | 7 kts | 314° |
| 2026-05-06 03:01 | 35.89351 | -78.77819 | 392 ft | 9 kts | 272° |
| 2026-05-06 03:01 | 35.89336 | -78.77860 | 391 ft | 0 kts | 228° |
| 2026-05-06 03:01 | 35.89280 | -78.77931 | 390 ft | 41 kts | 225° |
| 2026-05-06 03:01 | 35.88892 | -78.78408 | 391 ft | 113 kts | 224° |
| 2026-05-06 03:02 | 35.88204 | -78.79255 | 418 ft | 167 kts | 223° |
| 2026-05-06 03:02 | 35.87385 | -78.80301 | 1152 ft | 166 kts | 222° |
| 2026-05-06 03:02 | 35.86580 | -78.81367 | 1847 ft | 174 kts | 229° |
| 2026-05-06 03:02 | 35.86259 | -78.82835 | 2581 ft | 186 kts | 268° |
| 2026-05-06 03:03 | 35.86398 | -78.84343 | 3627 ft | 167 kts | 268° |
| 2026-05-06 03:03 | 35.86819 | -78.85741 | 4111 ft | 201 kts | 307° |
| 2026-05-06 03:03 | 35.88160 | -78.86606 | 4331 ft | 239 kts | 345° |
| 2026-05-06 03:03 | 35.89929 | -78.86555 | 4567 ft | 273 kts | 11° |
| 2026-05-06 03:04 | 35.91693 | -78.85516 | 5079 ft | 289 kts | 38° |
| 2026-05-06 03:04 | 35.93158 | -78.83797 | 5815 ft | 294 kts | 46° |
| 2026-05-06 03:04 | 35.94576 | -78.81957 | 6600 ft | 297 kts | 47° |
| 2026-05-06 03:04 | 35.96002 | -78.80100 | 7389 ft | 299 kts | 46° |
| 2026-05-06 03:05 | 35.97452 | -78.78239 | 8173 ft | 303 kts | 46° |
| 2026-05-06 03:05 | 35.98934 | -78.76366 | 8983 ft | 307 kts | 45° |
| 2026-05-06 03:05 | 36.00441 | -78.74483 | 9767 ft | 311 kts | 45° |
| 2026-05-06 03:05 | 36.01981 | -78.72572 | 10447 ft | 320 kts | 44° |
| 2026-05-06 03:06 | 36.03612 | -78.70561 | 10658 ft | 345 kts | 44° |
| 2026-05-06 03:06 | 36.05374 | -78.68394 | 10871 ft | 368 kts | 44° |
| 2026-05-06 03:06 | 36.07224 | -78.66122 | 11357 ft | 379 kts | 43° |
| 2026-05-06 03:06 | 36.09106 | -78.63810 | 12066 ft | 383 kts | 43° |
| 2026-05-06 03:07 | 36.11003 | -78.61480 | 12850 ft | 385 kts | 43° |
| 2026-05-06 03:07 | 36.12912 | -78.59134 | 13640 ft | 389 kts | 42° |
| 2026-05-06 03:07 | 36.14840 | -78.56764 | 14325 ft | 393 kts | 42° |
| 2026-05-06 03:07 | 36.16788 | -78.54367 | 15045 ft | 397 kts | 42° |
| 2026-05-06 03:08 | 36.18753 | -78.51948 | 15769 ft | 400 kts | 42° |
| 2026-05-06 03:08 | 36.20737 | -78.49504 | 16462 ft | 406 kts | 42° |
| 2026-05-06 03:08 | 36.22749 | -78.47018 | 17109 ft | 411 kts | 42° |
| 2026-05-06 03:08 | 36.24779 | -78.44495 | 17866 ft | 413 kts | 41° |
| 2026-05-06 03:09 | 36.26827 | -78.41976 | 18559 ft | 416 kts | 41° |
| 2026-05-06 03:09 | 36.28980 | -78.39566 | 19144 ft | 418 kts | 35° |
| 2026-05-06 03:09 | 36.31298 | -78.37378 | 19735 ft | 420 kts | 32° |
| 2026-05-06 03:09 | 36.33680 | -78.35255 | 20363 ft | 423 kts | 31° |
| 2026-05-06 03:10 | 36.36078 | -78.33123 | 20980 ft | 426 kts | 31° |
| 2026-05-06 03:10 | 36.38481 | -78.30950 | 21566 ft | 429 kts | 31° |
| 2026-05-06 03:10 | 36.40890 | -78.28733 | 22119 ft | 433 kts | 32° |
| 2026-05-06 03:10 | 36.43314 | -78.26478 | 22665 ft | 437 kts | 32° |
| 2026-05-06 03:11 | 36.44929 | -78.24967 | 22996 ft | 440 kts | 32° |
| 2026-05-06 03:11 | 36.47386 | -78.22668 | 23534 ft | 444 kts | 31° |
| 2026-05-06 03:11 | 36.49860 | -78.20354 | 24002 ft | 446 kts | 31° |
| 2026-05-06 03:11 | 36.52338 | -78.18027 | 24484 ft | 448 kts | 31° |
| 2026-05-06 03:12 | 36.54828 | -78.15680 | 24942 ft | 450 kts | 31° |
| 2026-05-06 03:12 | 36.57332 | -78.13315 | 25453 ft | 453 kts | 31° |
| 2026-05-06 03:12 | 36.59848 | -78.10937 | 25895 ft | 455 kts | 31° |
| 2026-05-06 03:12 | 36.62373 | -78.08547 | 26332 ft | 458 kts | 31° |
| 2026-05-06 03:13 | 36.64914 | -78.06141 | 26776 ft | 460 kts | 31° |
| 2026-05-06 03:13 | 36.67473 | -78.03717 | 27154 ft | 464 kts | 31° |
| 2026-05-06 03:13 | 36.70047 | -78.01277 | 27551 ft | 466 kts | 31° |
| 2026-05-06 03:13 | 36.72630 | -77.98825 | 27958 ft | 468 kts | 31° |
| 2026-05-06 03:14 | 36.75227 | -77.96357 | 28338 ft | 470 kts | 31° |
| 2026-05-06 03:14 | 36.77837 | -77.93875 | 28742 ft | 472 kts | 31° |
| 2026-05-06 03:14 | 36.80446 | -77.91392 | 29199 ft | 472 kts | 32° |
| 2026-05-06 03:14 | 36.82877 | -77.88568 | 29502 ft | 487 kts | 46° |
| 2026-05-06 03:15 | 36.84856 | -77.85117 | 29845 ft | 492 kts | 51° |
| 2026-05-06 03:15 | 36.86775 | -77.81550 | 30143 ft | 495 kts | 51° |
| 2026-05-06 03:15 | 36.88688 | -77.77967 | 30439 ft | 498 kts | 51° |
| 2026-05-06 03:15 | 36.90622 | -77.74380 | 30830 ft | 497 kts | 50° |
| 2026-05-06 03:16 | 36.92565 | -77.70826 | 31270 ft | 494 kts | 49° |
| 2026-05-06 03:16 | 36.94512 | -77.67304 | 31717 ft | 491 kts | 48° |
| 2026-05-06 03:16 | 36.96461 | -77.63798 | 32101 ft | 491 kts | 48° |
| 2026-05-06 03:16 | 36.98412 | -77.60295 | 32439 ft | 491 kts | 47° |
| 2026-05-06 03:17 | 37.00360 | -77.56792 | 32841 ft | 490 kts | 47° |
| 2026-05-06 03:17 | 37.02290 | -77.53312 | 33339 ft | 486 kts | 47° |
| 2026-05-06 03:17 | 37.04210 | -77.49843 | 33800 ft | 484 kts | 46° |
| 2026-05-06 03:17 | 37.06127 | -77.46377 | 34188 ft | 483 kts | 46° |
| 2026-05-06 03:18 | 37.08040 | -77.42918 | 34463 ft | 483 kts | 46° |
| 2026-05-06 03:18 | 37.09972 | -77.39489 | 34734 ft | 480 kts | 43° |
| 2026-05-06 03:18 | 37.12166 | -77.36405 | 35038 ft | 468 kts | 34° |
| 2026-05-06 03:18 | 37.14507 | -77.33596 | 35377 ft | 465 kts | 33° |
| 2026-05-06 03:19 | 37.16866 | -77.30832 | 35684 ft | 464 kts | 33° |
| 2026-05-06 03:19 | 37.19223 | -77.28072 | 35965 ft | 464 kts | 33° |
| 2026-05-06 03:19 | 37.21567 | -77.25304 | 36247 ft | 464 kts | 33° |
| 2026-05-06 03:19 | 37.23905 | -77.22514 | 36527 ft | 464 kts | 33° |
| 2026-05-06 03:20 | 37.28555 | -77.16911 | 36967 ft | 466 kts | 33° |
| 2026-05-06 03:20 | 37.33236 | -77.11248 | 36964 ft | 468 kts | 34° |
| 2026-05-06 03:21 | 37.37888 | -77.05598 | 36966 ft | 462 kts | 34° |
| 2026-05-06 03:21 | 37.42504 | -76.99994 | 36983 ft | 460 kts | 33° |
| 2026-05-06 03:22 | 37.47072 | -76.94444 | 36990 ft | 460 kts | 33° |
| 2026-05-06 03:22 | 37.51718 | -76.88807 | 36987 ft | 466 kts | 33° |
| 2026-05-06 03:23 | 37.56384 | -76.83159 | 37002 ft | 463 kts | 34° |
| 2026-05-06 03:23 | 37.61015 | -76.77576 | 36990 ft | 458 kts | 34° |
| 2026-05-06 03:24 | 37.65605 | -76.72043 | 36987 ft | 455 kts | 33° |
| 2026-05-06 03:24 | 37.70172 | -76.66532 | 36985 ft | 454 kts | 33° |
| 2026-05-06 03:25 | 37.74776 | -76.60987 | 36987 ft | 461 kts | 33° |
| 2026-05-06 03:25 | 37.79457 | -76.55376 | 36970 ft | 465 kts | 33° |
| 2026-05-06 03:26 | 37.84165 | -76.49738 | 36964 ft | 466 kts | 34° |